sensor_id;sensor_type;location;lat;lon;timestamp;P1;durP1;ratioP1;P2;durP2;ratioP2
7887;SDS011;3989;48.810;9.208;2022-08-21T00:01:20;3.10;;;2.90;;
7887;SDS011;3989;48.810;9.208;2022-08-21T00:03:50;2.57;;;2.40;;
7887;SDS011;3989;48.810;9.208;2022-08-21T00:06:16;2.90;;;2.43;;
7887;SDS011;3989;48.810;9.208;2022-08-21T00:08:44;2.30;;;2.20;;
7887;SDS011;3989;48.810;9.208;2022-08-21T00:11:11;2.83;;;2.63;;
7887;SDS011;3989;48.810;9.208;2022-08-21T00:13:38;4.27;;;2.63;;
7887;SDS011;3989;48.810;9.208;2022-08-21T00:16:05;4.40;;;2.57;;
7887;SDS011;3989;48.810;9.208;2022-08-21T00:18:32;4.67;;;2.60;;
7887;SDS011;3989;48.810;9.208;2022-08-21T00:20:58;5.17;;;2.80;;
7887;SDS011;3989;48.810;9.208;2022-08-21T00:23:25;3.07;;;2.83;;
7887;SDS011;3989;48.810;9.208;2022-08-21T00:25:53;2.53;;;2.43;;
7887;SDS011;3989;48.810;9.208;2022-08-21T00:28:20;2.30;;;2.10;;
7887;SDS011;3989;48.810;9.208;2022-08-21T00:30:46;3.90;;;2.63;;
7887;SDS011;3989;48.810;9.208;2022-08-21T00:33:13;3.97;;;2.53;;
7887;SDS011;3989;48.810;9.208;2022-08-21T00:35:41;3.00;;;2.70;;
7887;SDS011;3989;48.810;9.208;2022-08-21T00:38:09;2.80;;;2.60;;
7887;SDS011;3989;48.810;9.208;2022-08-21T00:40:37;2.37;;;2.13;;
7887;SDS011;3989;48.810;9.208;2022-08-21T00:43:08;2.63;;;2.43;;
7887;SDS011;3989;48.810;9.208;2022-08-21T00:45:38;5.20;;;2.40;;
7887;SDS011;3989;48.810;9.208;2022-08-21T00:48:05;2.40;;;2.20;;
7887;SDS011;3989;48.810;9.208;2022-08-21T00:50:33;4.57;;;2.43;;
7887;SDS011;3989;48.810;9.208;2022-08-21T00:53:04;3.27;;;2.97;;
7887;SDS011;3989;48.810;9.208;2022-08-21T00:55:34;4.03;;;2.23;;
7887;SDS011;3989;48.810;9.208;2022-08-21T00:58:02;3.83;;;2.57;;
7887;SDS011;3989;48.810;9.208;2022-08-21T01:00:34;2.57;;;2.37;;
7887;SDS011;3989;48.810;9.208;2022-08-21T01:03:05;2.87;;;2.67;;
7887;SDS011;3989;48.810;9.208;2022-08-21T01:05:33;2.70;;;2.10;;
7887;SDS011;3989;48.810;9.208;2022-08-21T01:08:00;2.63;;;2.43;;
7887;SDS011;3989;48.810;9.208;2022-08-21T01:10:27;2.63;;;2.43;;
7887;SDS011;3989;48.810;9.208;2022-08-21T01:12:54;2.57;;;2.37;;
7887;SDS011;3989;48.810;9.208;2022-08-21T01:15:23;6.13;;;2.90;;
7887;SDS011;3989;48.810;9.208;2022-08-21T01:17:54;2.67;;;2.47;;
7887;SDS011;3989;48.810;9.208;2022-08-21T01:20:21;4.37;;;2.80;;
7887;SDS011;3989;48.810;9.208;2022-08-21T01:22:49;2.20;;;2.10;;
7887;SDS011;3989;48.810;9.208;2022-08-21T01:25:16;4.43;;;2.40;;
7887;SDS011;3989;48.810;9.208;2022-08-21T01:27:45;2.60;;;2.40;;
7887;SDS011;3989;48.810;9.208;2022-08-21T01:30:13;2.23;;;2.13;;
7887;SDS011;3989;48.810;9.208;2022-08-21T01:32:42;2.80;;;2.53;;
7887;SDS011;3989;48.810;9.208;2022-08-21T01:35:11;2.47;;;2.23;;
7887;SDS011;3989;48.810;9.208;2022-08-21T01:37:40;2.40;;;2.20;;
7887;SDS011;3989;48.810;9.208;2022-08-21T01:40:09;2.97;;;2.77;;
7887;SDS011;3989;48.810;9.208;2022-08-21T01:42:37;2.23;;;2.13;;
7887;SDS011;3989;48.810;9.208;2022-08-21T01:45:04;2.67;;;2.47;;
7887;SDS011;3989;48.810;9.208;2022-08-21T01:47:32;2.60;;;2.40;;
7887;SDS011;3989;48.810;9.208;2022-08-21T01:49:59;2.23;;;2.13;;
7887;SDS011;3989;48.810;9.208;2022-08-21T01:52:26;4.40;;;2.20;;
7887;SDS011;3989;48.810;9.208;2022-08-21T01:54:58;3.67;;;2.40;;
7887;SDS011;3989;48.810;9.208;2022-08-21T01:57:38;2.23;;;2.00;;
7887;SDS011;3989;48.810;9.208;2022-08-21T02:00:05;2.97;;;2.63;;
7887;SDS011;3989;48.810;9.208;2022-08-21T02:02:35;2.43;;;2.30;;
7887;SDS011;3989;48.810;9.208;2022-08-21T02:05:02;2.50;;;2.37;;
7887;SDS011;3989;48.810;9.208;2022-08-21T02:07:34;2.67;;;2.47;;
7887;SDS011;3989;48.810;9.208;2022-08-21T02:10:03;3.70;;;2.10;;
7887;SDS011;3989;48.810;9.208;2022-08-21T02:12:32;2.27;;;2.07;;
7887;SDS011;3989;48.810;9.208;2022-08-21T02:15:00;3.30;;;2.43;;
7887;SDS011;3989;48.810;9.208;2022-08-21T02:17:36;2.27;;;2.17;;
7887;SDS011;3989;48.810;9.208;2022-08-21T02:20:03;4.50;;;2.63;;
7887;SDS011;3989;48.810;9.208;2022-08-21T02:22:31;3.83;;;2.13;;
7887;SDS011;3989;48.810;9.208;2022-08-21T02:24:57;3.07;;;2.37;;
7887;SDS011;3989;48.810;9.208;2022-08-21T02:27:24;2.27;;;2.07;;
7887;SDS011;3989;48.810;9.208;2022-08-21T02:29:51;5.33;;;2.57;;
7887;SDS011;3989;48.810;9.208;2022-08-21T02:32:19;3.90;;;2.70;;
7887;SDS011;3989;48.810;9.208;2022-08-21T02:34:46;3.40;;;2.60;;
7887;SDS011;3989;48.810;9.208;2022-08-21T02:37:13;3.07;;;2.87;;
7887;SDS011;3989;48.810;9.208;2022-08-21T02:39:40;3.13;;;2.83;;
7887;SDS011;3989;48.810;9.208;2022-08-21T02:42:07;4.27;;;3.07;;
7887;SDS011;3989;48.810;9.208;2022-08-21T02:44:33;3.00;;;2.80;;
7887;SDS011;3989;48.810;9.208;2022-08-21T02:47:00;5.97;;;3.13;;
7887;SDS011;3989;48.810;9.208;2022-08-21T02:49:28;2.90;;;2.70;;
7887;SDS011;3989;48.810;9.208;2022-08-21T02:51:54;4.57;;;2.80;;
7887;SDS011;3989;48.810;9.208;2022-08-21T02:54:21;2.63;;;2.43;;
7887;SDS011;3989;48.810;9.208;2022-08-21T02:56:47;3.00;;;2.80;;
7887;SDS011;3989;48.810;9.208;2022-08-21T02:59:14;3.40;;;3.10;;
7887;SDS011;3989;48.810;9.208;2022-08-21T03:01:40;3.27;;;2.93;;
7887;SDS011;3989;48.810;9.208;2022-08-21T03:04:07;3.50;;;3.20;;
7887;SDS011;3989;48.810;9.208;2022-08-21T03:06:35;3.10;;;2.90;;
7887;SDS011;3989;48.810;9.208;2022-08-21T03:09:02;3.43;;;3.23;;
7887;SDS011;3989;48.810;9.208;2022-08-21T03:11:29;3.70;;;3.40;;
7887;SDS011;3989;48.810;9.208;2022-08-21T03:13:56;3.07;;;2.87;;
7887;SDS011;3989;48.810;9.208;2022-08-21T03:16:22;3.93;;;3.27;;
7887;SDS011;3989;48.810;9.208;2022-08-21T03:18:49;3.00;;;2.80;;
7887;SDS011;3989;48.810;9.208;2022-08-21T03:21:15;3.23;;;2.70;;
7887;SDS011;3989;48.810;9.208;2022-08-21T03:23:45;3.53;;;3.20;;
7887;SDS011;3989;48.810;9.208;2022-08-21T03:26:11;4.20;;;3.43;;
7887;SDS011;3989;48.810;9.208;2022-08-21T03:28:38;3.07;;;2.77;;
7887;SDS011;3989;48.810;9.208;2022-08-21T03:31:05;3.17;;;2.97;;
7887;SDS011;3989;48.810;9.208;2022-08-21T03:33:31;3.77;;;3.47;;
7887;SDS011;3989;48.810;9.208;2022-08-21T03:35:59;2.80;;;2.70;;
7887;SDS011;3989;48.810;9.208;2022-08-21T03:38:30;3.50;;;3.20;;
7887;SDS011;3989;48.810;9.208;2022-08-21T03:41:00;4.47;;;2.90;;
7887;SDS011;3989;48.810;9.208;2022-08-21T03:43:27;3.30;;;3.07;;
7887;SDS011;3989;48.810;9.208;2022-08-21T03:45:55;4.77;;;3.23;;
7887;SDS011;3989;48.810;9.208;2022-08-21T03:48:21;4.97;;;3.63;;
7887;SDS011;3989;48.810;9.208;2022-08-21T03:50:48;4.03;;;3.47;;
7887;SDS011;3989;48.810;9.208;2022-08-21T03:53:18;6.00;;;3.37;;
7887;SDS011;3989;48.810;9.208;2022-08-21T03:55:46;3.50;;;3.13;;
7887;SDS011;3989;48.810;9.208;2022-08-21T03:58:16;4.73;;;3.10;;
7887;SDS011;3989;48.810;9.208;2022-08-21T04:00:44;5.83;;;3.80;;
7887;SDS011;3989;48.810;9.208;2022-08-21T04:03:12;5.60;;;3.73;;
7887;SDS011;3989;48.810;9.208;2022-08-21T04:05:39;3.97;;;3.63;;
7887;SDS011;3989;48.810;9.208;2022-08-21T04:08:06;3.50;;;3.20;;
7887;SDS011;3989;48.810;9.208;2022-08-21T04:10:34;4.20;;;3.87;;
7887;SDS011;3989;48.810;9.208;2022-08-21T04:13:02;3.23;;;3.00;;
7887;SDS011;3989;48.810;9.208;2022-08-21T04:15:31;2.93;;;2.73;;
7887;SDS011;3989;48.810;9.208;2022-08-21T04:17:58;2.97;;;2.77;;
7887;SDS011;3989;48.810;9.208;2022-08-21T04:20:25;3.27;;;3.00;;
7887;SDS011;3989;48.810;9.208;2022-08-21T04:22:53;2.67;;;2.47;;
7887;SDS011;3989;48.810;9.208;2022-08-21T04:25:21;3.30;;;3.10;;
7887;SDS011;3989;48.810;9.208;2022-08-21T04:27:50;4.47;;;3.13;;
7887;SDS011;3989;48.810;9.208;2022-08-21T04:30:17;2.70;;;2.60;;
7887;SDS011;3989;48.810;9.208;2022-08-21T04:32:47;3.23;;;3.03;;
7887;SDS011;3989;48.810;9.208;2022-08-21T04:35:16;4.07;;;3.07;;
7887;SDS011;3989;48.810;9.208;2022-08-21T04:37:44;3.03;;;2.83;;
7887;SDS011;3989;48.810;9.208;2022-08-21T04:40:12;3.07;;;2.87;;
7887;SDS011;3989;48.810;9.208;2022-08-21T04:42:42;2.63;;;2.47;;
7887;SDS011;3989;48.810;9.208;2022-08-21T04:45:15;3.30;;;3.10;;
7887;SDS011;3989;48.810;9.208;2022-08-21T04:47:47;4.80;;;2.83;;
7887;SDS011;3989;48.810;9.208;2022-08-21T04:50:15;5.87;;;2.70;;
7887;SDS011;3989;48.810;9.208;2022-08-21T04:52:42;3.13;;;2.83;;
7887;SDS011;3989;48.810;9.208;2022-08-21T04:55:09;2.90;;;2.67;;
7887;SDS011;3989;48.810;9.208;2022-08-21T04:57:36;3.10;;;2.90;;
7887;SDS011;3989;48.810;9.208;2022-08-21T05:00:05;2.93;;;2.77;;
7887;SDS011;3989;48.810;9.208;2022-08-21T05:02:32;3.70;;;2.90;;
7887;SDS011;3989;48.810;9.208;2022-08-21T05:05:01;3.30;;;2.97;;
7887;SDS011;3989;48.810;9.208;2022-08-21T05:07:28;3.30;;;2.97;;
7887;SDS011;3989;48.810;9.208;2022-08-21T05:09:58;3.00;;;2.80;;
7887;SDS011;3989;48.810;9.208;2022-08-21T05:12:25;3.20;;;3.00;;
7887;SDS011;3989;48.810;9.208;2022-08-21T05:14:53;3.77;;;3.03;;
7887;SDS011;3989;48.810;9.208;2022-08-21T05:17:19;4.00;;;3.10;;
7887;SDS011;3989;48.810;9.208;2022-08-21T05:19:46;3.23;;;3.00;;
7887;SDS011;3989;48.810;9.208;2022-08-21T05:22:19;3.47;;;2.70;;
7887;SDS011;3989;48.810;9.208;2022-08-21T05:24:49;3.97;;;2.80;;
7887;SDS011;3989;48.810;9.208;2022-08-21T05:27:16;2.90;;;2.70;;
7887;SDS011;3989;48.810;9.208;2022-08-21T05:29:43;4.37;;;2.90;;
7887;SDS011;3989;48.810;9.208;2022-08-21T05:32:10;2.63;;;2.43;;
7887;SDS011;3989;48.810;9.208;2022-08-21T05:34:38;3.47;;;3.00;;
7887;SDS011;3989;48.810;9.208;2022-08-21T05:37:05;4.93;;;2.73;;
7887;SDS011;3989;48.810;9.208;2022-08-21T05:39:33;2.67;;;2.57;;
7887;SDS011;3989;48.810;9.208;2022-08-21T05:42:00;2.93;;;2.73;;
7887;SDS011;3989;48.810;9.208;2022-08-21T05:44:27;3.00;;;2.77;;
7887;SDS011;3989;48.810;9.208;2022-08-21T05:46:54;3.17;;;3.03;;
7887;SDS011;3989;48.810;9.208;2022-08-21T05:49:21;3.07;;;2.80;;
7887;SDS011;3989;48.810;9.208;2022-08-21T05:51:47;4.60;;;2.30;;
7887;SDS011;3989;48.810;9.208;2022-08-21T05:54:14;4.50;;;2.80;;
7887;SDS011;3989;48.810;9.208;2022-08-21T05:56:42;2.67;;;2.30;;
7887;SDS011;3989;48.810;9.208;2022-08-21T05:59:09;2.40;;;2.30;;
7887;SDS011;3989;48.810;9.208;2022-08-21T06:01:38;2.53;;;2.20;;
7887;SDS011;3989;48.810;9.208;2022-08-21T06:04:05;3.47;;;2.30;;
7887;SDS011;3989;48.810;9.208;2022-08-21T06:06:32;2.70;;;2.50;;
7887;SDS011;3989;48.810;9.208;2022-08-21T06:08:59;3.03;;;2.60;;
7887;SDS011;3989;48.810;9.208;2022-08-21T06:11:26;2.20;;;2.10;;
7887;SDS011;3989;48.810;9.208;2022-08-21T06:13:55;4.97;;;2.40;;
7887;SDS011;3989;48.810;9.208;2022-08-21T06:16:22;2.43;;;2.23;;
7887;SDS011;3989;48.810;9.208;2022-08-21T06:18:49;2.90;;;2.43;;
7887;SDS011;3989;48.810;9.208;2022-08-21T06:21:16;2.83;;;2.63;;
7887;SDS011;3989;48.810;9.208;2022-08-21T06:23:43;2.60;;;2.43;;
7887;SDS011;3989;48.810;9.208;2022-08-21T06:26:11;3.20;;;2.10;;
7887;SDS011;3989;48.810;9.208;2022-08-21T06:28:40;2.53;;;2.33;;
7887;SDS011;3989;48.810;9.208;2022-08-21T06:31:12;2.33;;;2.23;;
7887;SDS011;3989;48.810;9.208;2022-08-21T06:33:41;2.33;;;2.23;;
7887;SDS011;3989;48.810;9.208;2022-08-21T06:36:08;3.10;;;2.50;;
7887;SDS011;3989;48.810;9.208;2022-08-21T06:38:35;2.77;;;2.57;;
7887;SDS011;3989;48.810;9.208;2022-08-21T06:41:02;2.60;;;2.37;;
7887;SDS011;3989;48.810;9.208;2022-08-21T06:43:29;2.90;;;2.07;;
7887;SDS011;3989;48.810;9.208;2022-08-21T06:45:56;2.50;;;2.40;;
7887;SDS011;3989;48.810;9.208;2022-08-21T06:48:24;2.40;;;2.20;;
7887;SDS011;3989;48.810;9.208;2022-08-21T06:50:50;3.03;;;2.77;;
7887;SDS011;3989;48.810;9.208;2022-08-21T06:53:18;2.43;;;2.30;;
7887;SDS011;3989;48.810;9.208;2022-08-21T06:55:46;3.93;;;2.40;;
7887;SDS011;3989;48.810;9.208;2022-08-21T06:58:14;2.17;;;2.07;;
7887;SDS011;3989;48.810;9.208;2022-08-21T07:00:43;3.53;;;2.40;;
7887;SDS011;3989;48.810;9.208;2022-08-21T07:03:21;4.00;;;2.50;;
7887;SDS011;3989;48.810;9.208;2022-08-21T07:05:52;2.87;;;2.20;;
7887;SDS011;3989;48.810;9.208;2022-08-21T07:08:19;3.33;;;2.63;;
7887;SDS011;3989;48.810;9.208;2022-08-21T07:10:46;2.63;;;2.40;;
7887;SDS011;3989;48.810;9.208;2022-08-21T07:13:14;3.60;;;2.20;;
7887;SDS011;3989;48.810;9.208;2022-08-21T07:15:40;2.63;;;2.42;;
7887;SDS011;3989;48.810;9.208;2022-08-21T07:18:07;3.03;;;2.38;;
7887;SDS011;3989;48.810;9.208;2022-08-21T07:20:35;2.83;;;2.63;;
7887;SDS011;3989;48.810;9.208;2022-08-21T07:23:03;2.90;;;2.67;;
7887;SDS011;3989;48.810;9.208;2022-08-21T07:25:33;2.83;;;2.15;;
7887;SDS011;3989;48.810;9.208;2022-08-21T07:28:00;3.63;;;2.50;;
7887;SDS011;3989;48.810;9.208;2022-08-21T07:30:27;3.00;;;2.42;;
7887;SDS011;3989;48.810;9.208;2022-08-21T07:32:53;2.95;;;2.65;;
7887;SDS011;3989;48.810;9.208;2022-08-21T07:35:21;2.60;;;2.40;;
7887;SDS011;3989;48.810;9.208;2022-08-21T07:37:50;2.80;;;2.60;;
7887;SDS011;3989;48.810;9.208;2022-08-21T07:40:16;2.97;;;2.30;;
7887;SDS011;3989;48.810;9.208;2022-08-21T07:42:45;3.40;;;2.80;;
7887;SDS011;3989;48.810;9.208;2022-08-21T07:45:15;2.47;;;2.28;;
7887;SDS011;3989;48.810;9.208;2022-08-21T07:47:41;2.30;;;2.20;;
7887;SDS011;3989;48.810;9.208;2022-08-21T07:50:09;2.95;;;2.40;;
7887;SDS011;3989;48.810;9.208;2022-08-21T07:52:37;2.70;;;2.50;;
7887;SDS011;3989;48.810;9.208;2022-08-21T07:55:06;3.10;;;2.30;;
7887;SDS011;3989;48.810;9.208;2022-08-21T07:57:33;3.50;;;2.65;;
7887;SDS011;3989;48.810;9.208;2022-08-21T08:00:00;7.28;;;2.55;;
7887;SDS011;3989;48.810;9.208;2022-08-21T08:02:28;4.10;;;2.30;;
7887;SDS011;3989;48.810;9.208;2022-08-21T08:04:58;2.63;;;2.47;;
7887;SDS011;3989;48.810;9.208;2022-08-21T08:07:25;2.15;;;2.05;;
7887;SDS011;3989;48.810;9.208;2022-08-21T08:09:52;2.20;;;2.10;;
7887;SDS011;3989;48.810;9.208;2022-08-21T08:12:20;4.00;;;2.40;;
7887;SDS011;3989;48.810;9.208;2022-08-21T08:14:47;3.10;;;2.10;;
7887;SDS011;3989;48.810;9.208;2022-08-21T08:17:13;2.67;;;2.30;;
7887;SDS011;3989;48.810;9.208;2022-08-21T08:19:40;2.75;;;2.38;;
7887;SDS011;3989;48.810;9.208;2022-08-21T08:22:12;3.05;;;2.83;;
7887;SDS011;3989;48.810;9.208;2022-08-21T08:24:44;2.50;;;2.30;;
7887;SDS011;3989;48.810;9.208;2022-08-21T08:27:11;3.08;;;2.58;;
7887;SDS011;3989;48.810;9.208;2022-08-21T08:29:39;4.70;;;2.30;;
7887;SDS011;3989;48.810;9.208;2022-08-21T08:32:05;3.03;;;2.72;;
7887;SDS011;3989;48.810;9.208;2022-08-21T08:34:33;3.35;;;2.72;;
7887;SDS011;3989;48.810;9.208;2022-08-21T08:37:00;5.68;;;2.97;;
7887;SDS011;3989;48.810;9.208;2022-08-21T08:39:26;3.40;;;2.75;;
7887;SDS011;3989;48.810;9.208;2022-08-21T08:41:54;3.33;;;2.90;;
7887;SDS011;3989;48.810;9.208;2022-08-21T08:44:25;2.50;;;2.30;;
7887;SDS011;3989;48.810;9.208;2022-08-21T08:46:53;2.65;;;2.45;;
7887;SDS011;3989;48.810;9.208;2022-08-21T08:49:23;4.40;;;2.55;;
7887;SDS011;3989;48.810;9.208;2022-08-21T08:52:02;3.00;;;2.65;;
7887;SDS011;3989;48.810;9.208;2022-08-21T08:54:33;6.70;;;2.90;;
7887;SDS011;3989;48.810;9.208;2022-08-21T08:57:09;2.83;;;2.63;;
7887;SDS011;3989;48.810;9.208;2022-08-21T08:59:40;4.18;;;2.95;;
7887;SDS011;3989;48.810;9.208;2022-08-21T09:02:11;3.47;;;2.42;;
7887;SDS011;3989;48.810;9.208;2022-08-21T09:04:39;4.43;;;2.60;;
7887;SDS011;3989;48.810;9.208;2022-08-21T09:07:09;5.25;;;2.88;;
7887;SDS011;3989;48.810;9.208;2022-08-21T09:09:46;2.72;;;2.53;;
7887;SDS011;3989;48.810;9.208;2022-08-21T09:12:25;4.15;;;2.80;;
7887;SDS011;3989;48.810;9.208;2022-08-21T09:15:02;3.22;;;2.58;;
7887;SDS011;3989;48.810;9.208;2022-08-21T09:17:40;3.05;;;2.85;;
7887;SDS011;3989;48.810;9.208;2022-08-21T09:20:23;3.70;;;3.08;;
7887;SDS011;3989;48.810;9.208;2022-08-21T09:23:02;2.67;;;2.17;;
7887;SDS011;3989;48.810;9.208;2022-08-21T09:25:41;3.20;;;2.58;;
7887;SDS011;3989;48.810;9.208;2022-08-21T09:28:12;2.72;;;2.30;;
7887;SDS011;3989;48.810;9.208;2022-08-21T09:30:39;2.88;;;2.05;;
7887;SDS011;3989;48.810;9.208;2022-08-21T09:33:08;4.57;;;2.72;;
7887;SDS011;3989;48.810;9.208;2022-08-21T09:35:47;3.03;;;2.53;;
7887;SDS011;3989;48.810;9.208;2022-08-21T09:38:23;2.90;;;2.70;;
7887;SDS011;3989;48.810;9.208;2022-08-21T09:40:55;2.55;;;2.33;;
7887;SDS011;3989;48.810;9.208;2022-08-21T09:43:23;2.58;;;2.20;;
7887;SDS011;3989;48.810;9.208;2022-08-21T09:46:00;5.00;;;2.75;;
7887;SDS011;3989;48.810;9.208;2022-08-21T09:48:38;3.33;;;3.00;;
7887;SDS011;3989;48.810;9.208;2022-08-21T09:51:07;4.53;;;2.17;;
7887;SDS011;3989;48.810;9.208;2022-08-21T09:53:37;2.95;;;2.55;;
7887;SDS011;3989;48.810;9.208;2022-08-21T09:56:16;7.20;;;2.65;;
7887;SDS011;3989;48.810;9.208;2022-08-21T09:59:11;5.70;;;2.80;;
7887;SDS011;3989;48.810;9.208;2022-08-21T10:01:42;4.65;;;2.88;;
7887;SDS011;3989;48.810;9.208;2022-08-21T10:04:11;3.70;;;2.72;;
7887;SDS011;3989;48.810;9.208;2022-08-21T10:06:38;2.20;;;1.92;;
7887;SDS011;3989;48.810;9.208;2022-08-21T10:09:06;5.05;;;2.70;;
7887;SDS011;3989;48.810;9.208;2022-08-21T10:11:35;5.03;;;2.92;;
7887;SDS011;3989;48.810;9.208;2022-08-21T10:14:05;5.30;;;2.70;;
7887;SDS011;3989;48.810;9.208;2022-08-21T10:16:47;2.53;;;2.25;;
7887;SDS011;3989;48.810;9.208;2022-08-21T10:19:29;5.28;;;2.88;;
7887;SDS011;3989;48.810;9.208;2022-08-21T10:22:08;5.70;;;2.53;;
7887;SDS011;3989;48.810;9.208;2022-08-21T10:24:48;2.25;;;2.05;;
7887;SDS011;3989;48.810;9.208;2022-08-21T10:27:29;3.40;;;2.53;;
7887;SDS011;3989;48.810;9.208;2022-08-21T10:30:04;2.60;;;2.40;;
7887;SDS011;3989;48.810;9.208;2022-08-21T10:32:45;2.20;;;2.03;;
7887;SDS011;3989;48.810;9.208;2022-08-21T10:35:27;3.38;;;2.13;;
7887;SDS011;3989;48.810;9.208;2022-08-21T10:38:10;5.75;;;2.70;;
7887;SDS011;3989;48.810;9.208;2022-08-21T10:40:59;2.15;;;2.05;;
7887;SDS011;3989;48.810;9.208;2022-08-21T10:43:37;2.60;;;2.10;;
7887;SDS011;3989;48.810;9.208;2022-08-21T10:46:11;2.42;;;2.22;;
7887;SDS011;3989;48.810;9.208;2022-08-21T10:48:50;2.85;;;2.65;;
7887;SDS011;3989;48.810;9.208;2022-08-21T10:51:27;2.38;;;2.22;;
7887;SDS011;3989;48.810;9.208;2022-08-21T10:54:02;3.50;;;2.42;;
7887;SDS011;3989;48.810;9.208;2022-08-21T10:56:38;3.30;;;2.40;;
7887;SDS011;3989;48.810;9.208;2022-08-21T10:59:17;2.55;;;2.17;;
7887;SDS011;3989;48.810;9.208;2022-08-21T11:01:53;4.90;;;2.08;;
7887;SDS011;3989;48.810;9.208;2022-08-21T11:04:25;3.28;;;2.50;;
7887;SDS011;3989;48.810;9.208;2022-08-21T11:06:59;5.20;;;2.65;;
7887;SDS011;3989;48.810;9.208;2022-08-21T11:09:29;4.22;;;2.08;;
7887;SDS011;3989;48.810;9.208;2022-08-21T11:11:58;2.72;;;2.50;;
7887;SDS011;3989;48.810;9.208;2022-08-21T11:14:31;2.58;;;2.38;;
7887;SDS011;3989;48.810;9.208;2022-08-21T11:17:06;2.95;;;2.20;;
7887;SDS011;3989;48.810;9.208;2022-08-21T11:19:35;7.00;;;2.40;;
7887;SDS011;3989;48.810;9.208;2022-08-21T11:22:10;2.80;;;2.30;;
7887;SDS011;3989;48.810;9.208;2022-08-21T11:24:42;3.88;;;2.70;;
7887;SDS011;3989;48.810;9.208;2022-08-21T11:27:17;2.53;;;2.25;;
7887;SDS011;3989;48.810;9.208;2022-08-21T11:29:48;3.70;;;2.40;;
7887;SDS011;3989;48.810;9.208;2022-08-21T11:32:29;2.65;;;2.38;;
7887;SDS011;3989;48.810;9.208;2022-08-21T11:35:07;3.03;;;2.60;;
7887;SDS011;3989;48.810;9.208;2022-08-21T11:37:45;3.53;;;2.40;;
7887;SDS011;3989;48.810;9.208;2022-08-21T11:40:24;2.53;;;2.33;;
7887;SDS011;3989;48.810;9.208;2022-08-21T11:43:00;3.38;;;2.63;;
7887;SDS011;3989;48.810;9.208;2022-08-21T11:45:37;3.63;;;2.15;;
7887;SDS011;3989;48.810;9.208;2022-08-21T11:48:12;2.92;;;2.65;;
7887;SDS011;3989;48.810;9.208;2022-08-21T11:50:49;3.30;;;2.33;;
7887;SDS011;3989;48.810;9.208;2022-08-21T11:53:20;3.63;;;2.35;;
7887;SDS011;3989;48.810;9.208;2022-08-21T11:55:51;2.22;;;2.00;;
7887;SDS011;3989;48.810;9.208;2022-08-21T11:58:22;2.60;;;2.40;;
7887;SDS011;3989;48.810;9.208;2022-08-21T12:00:54;2.35;;;1.88;;
7887;SDS011;3989;48.810;9.208;2022-08-21T12:03:25;5.03;;;2.42;;
7887;SDS011;3989;48.810;9.208;2022-08-21T12:05:54;2.25;;;2.15;;
7887;SDS011;3989;48.810;9.208;2022-08-21T12:08:28;2.70;;;2.50;;
7887;SDS011;3989;48.810;9.208;2022-08-21T12:11:01;3.78;;;2.45;;
7887;SDS011;3989;48.810;9.208;2022-08-21T12:13:32;2.80;;;2.30;;
7887;SDS011;3989;48.810;9.208;2022-08-21T12:16:10;5.13;;;2.20;;
7887;SDS011;3989;48.810;9.208;2022-08-21T12:18:38;2.88;;;2.67;;
7887;SDS011;3989;48.810;9.208;2022-08-21T12:21:17;3.00;;;1.95;;
7887;SDS011;3989;48.810;9.208;2022-08-21T12:23:49;2.50;;;1.88;;
7887;SDS011;3989;48.810;9.208;2022-08-21T12:26:28;2.47;;;2.28;;
7887;SDS011;3989;48.810;9.208;2022-08-21T12:29:03;3.95;;;2.20;;
7887;SDS011;3989;48.810;9.208;2022-08-21T12:31:51;2.47;;;2.25;;
7887;SDS011;3989;48.810;9.208;2022-08-21T12:34:23;2.40;;;1.85;;
7887;SDS011;3989;48.810;9.208;2022-08-21T12:37:01;3.85;;;2.50;;
7887;SDS011;3989;48.810;9.208;2022-08-21T12:39:48;2.40;;;2.30;;
7887;SDS011;3989;48.810;9.208;2022-08-21T12:42:30;2.53;;;2.30;;
7887;SDS011;3989;48.810;9.208;2022-08-21T12:45:11;2.80;;;2.60;;
7887;SDS011;3989;48.810;9.208;2022-08-21T12:47:48;2.55;;;1.92;;
7887;SDS011;3989;48.810;9.208;2022-08-21T12:50:29;3.17;;;2.17;;
7887;SDS011;3989;48.810;9.208;2022-08-21T12:53:04;2.63;;;2.38;;
7887;SDS011;3989;48.810;9.208;2022-08-21T12:55:42;2.55;;;2.22;;
7887;SDS011;3989;48.810;9.208;2022-08-21T12:58:16;2.28;;;2.10;;
7887;SDS011;3989;48.810;9.208;2022-08-21T13:03:21;2.10;;;1.85;;
7887;SDS011;3989;48.810;9.208;2022-08-21T13:05:48;2.58;;;2.05;;
7887;SDS011;3989;48.810;9.208;2022-08-21T13:08:20;3.05;;;2.00;;
7887;SDS011;3989;48.810;9.208;2022-08-21T13:10:56;2.50;;;2.30;;
7887;SDS011;3989;48.810;9.208;2022-08-21T13:13:32;3.53;;;2.08;;
7887;SDS011;3989;48.810;9.208;2022-08-21T13:16:03;3.08;;;2.22;;
7887;SDS011;3989;48.810;9.208;2022-08-21T13:21:29;2.03;;;1.90;;
7887;SDS011;3989;48.810;9.208;2022-08-21T13:24:10;2.17;;;1.98;;
7887;SDS011;3989;48.810;9.208;2022-08-21T13:26:47;2.40;;;2.20;;
7887;SDS011;3989;48.810;9.208;2022-08-21T13:29:20;2.78;;;2.03;;
7887;SDS011;3989;48.810;9.208;2022-08-21T13:31:49;2.72;;;2.53;;
7887;SDS011;3989;48.810;9.208;2022-08-21T13:34:22;2.65;;;1.98;;
7887;SDS011;3989;48.810;9.208;2022-08-21T13:36:52;2.00;;;1.80;;
7887;SDS011;3989;48.810;9.208;2022-08-21T13:39:25;3.70;;;2.30;;
7887;SDS011;3989;48.810;9.208;2022-08-21T13:44:36;2.33;;;2.13;;
7887;SDS011;3989;48.810;9.208;2022-08-21T13:47:09;2.00;;;1.90;;
7887;SDS011;3989;48.810;9.208;2022-08-21T13:49:43;3.03;;;2.13;;
7887;SDS011;3989;48.810;9.208;2022-08-21T13:52:16;2.35;;;2.15;;
7887;SDS011;3989;48.810;9.208;2022-08-21T13:54:52;2.75;;;2.35;;
7887;SDS011;3989;48.810;9.208;2022-08-21T13:57:31;2.67;;;2.08;;
7887;SDS011;3989;48.810;9.208;2022-08-21T14:00:14;2.35;;;2.05;;
7887;SDS011;3989;48.810;9.208;2022-08-21T14:02:49;2.92;;;2.63;;
7887;SDS011;3989;48.810;9.208;2022-08-21T14:05:25;2.00;;;1.90;;
7887;SDS011;3989;48.810;9.208;2022-08-21T14:08:08;2.40;;;2.20;;
7887;SDS011;3989;48.810;9.208;2022-08-21T14:10:55;2.67;;;2.17;;
7887;SDS011;3989;48.810;9.208;2022-08-21T14:13:38;4.28;;;2.13;;
7887;SDS011;3989;48.810;9.208;2022-08-21T14:19:26;1.85;;;1.75;;
7887;SDS011;3989;48.810;9.208;2022-08-21T14:25:03;2.83;;;2.03;;
7887;SDS011;3989;48.810;9.208;2022-08-21T14:28:14;5.30;;;2.53;;
7887;SDS011;3989;48.810;9.208;2022-08-21T14:30:59;4.03;;;2.25;;
7887;SDS011;3989;48.810;9.208;2022-08-21T14:33:56;2.00;;;1.80;;
7887;SDS011;3989;48.810;9.208;2022-08-21T14:42:42;2.25;;;1.77;;
7887;SDS011;3989;48.810;9.208;2022-08-21T14:45:13;3.05;;;1.67;;
7887;SDS011;3989;48.810;9.208;2022-08-21T14:47:43;2.35;;;2.00;;
7887;SDS011;3989;48.810;9.208;2022-08-21T14:50:12;1.88;;;1.77;;
7887;SDS011;3989;48.810;9.208;2022-08-21T14:52:40;2.17;;;1.83;;
7887;SDS011;3989;48.810;9.208;2022-08-21T14:55:11;2.25;;;2.05;;
7887;SDS011;3989;48.810;9.208;2022-08-21T14:58:17;2.53;;;1.95;;
7887;SDS011;3989;48.810;9.208;2022-08-21T15:01:01;3.88;;;2.10;;
7887;SDS011;3989;48.810;9.208;2022-08-21T15:03:43;1.98;;;1.83;;
7887;SDS011;3989;48.810;9.208;2022-08-21T15:06:22;1.88;;;1.77;;
7887;SDS011;3989;48.810;9.208;2022-08-21T15:09:03;1.98;;;1.88;;
7887;SDS011;3989;48.810;9.208;2022-08-21T15:11:36;2.00;;;1.90;;
7887;SDS011;3989;48.810;9.208;2022-08-21T15:14:06;2.28;;;2.00;;
7887;SDS011;3989;48.810;9.208;2022-08-21T15:21:46;2.42;;;2.20;;
7887;SDS011;3989;48.810;9.208;2022-08-21T15:24:13;2.78;;;1.83;;
7887;SDS011;3989;48.810;9.208;2022-08-21T15:26:43;3.15;;;2.00;;
7887;SDS011;3989;48.810;9.208;2022-08-21T16:00:27;2.50;;;1.80;;
7887;SDS011;3989;48.810;9.208;2022-08-21T16:03:13;2.15;;;2.00;;
7887;SDS011;3989;48.810;9.208;2022-08-21T16:05:58;2.30;;;2.10;;
7887;SDS011;3989;48.810;9.208;2022-08-21T16:08:30;3.35;;;1.90;;
7887;SDS011;3989;48.810;9.208;2022-08-21T16:11:09;1.92;;;1.70;;
7887;SDS011;3989;48.810;9.208;2022-08-21T16:13:46;2.08;;;1.90;;
7887;SDS011;3989;48.810;9.208;2022-08-21T16:16:29;2.05;;;1.45;;
7887;SDS011;3989;48.810;9.208;2022-08-21T16:19:19;2.65;;;1.75;;
7887;SDS011;3989;48.810;9.208;2022-08-21T16:22:04;1.80;;;1.70;;
7887;SDS011;3989;48.810;9.208;2022-08-21T16:24:39;2.33;;;1.70;;
7887;SDS011;3989;48.810;9.208;2022-08-21T16:27:11;1.90;;;1.80;;
7887;SDS011;3989;48.810;9.208;2022-08-21T16:29:47;1.73;;;1.60;;
7887;SDS011;3989;48.810;9.208;2022-08-21T16:32:42;5.90;;;3.50;;
7887;SDS011;3989;48.810;9.208;2022-08-21T16:35:27;1.98;;;1.88;;
7887;SDS011;3989;48.810;9.208;2022-08-21T16:38:02;1.70;;;1.60;;